createdAt,value
2023-01-10T00:00:05.169Z,12.00
2023-01-10T00:02:34.338Z,8.75
2023-01-10T00:05:03.729Z,11.50
2023-01-10T00:07:33.850Z,11.00
2023-01-10T00:10:02.182Z,11.50
2023-01-10T00:12:50.692Z,9.75
2023-01-10T00:15:20.206Z,11.75
2023-01-10T00:17:48.304Z,8.00
2023-01-10T00:20:17.301Z,9.75
2023-01-10T00:22:46.386Z,11.00
2023-01-10T00:25:14.542Z,11.25
2023-01-10T00:27:45.671Z,9.25
2023-01-10T00:30:14.490Z,15.50
2023-01-10T00:32:43.866Z,10.00
2023-01-10T00:35:13.341Z,12.75
2023-01-10T00:37:42.921Z,12.25
2023-01-10T00:40:12.574Z,11.75
2023-01-10T00:42:59.925Z,6.00
2023-01-10T00:45:29.054Z,13.25
2023-01-10T00:47:57.202Z,14.00
2023-01-10T00:50:26.767Z,10.50
2023-01-10T00:52:55.676Z,11.00
2023-01-10T00:55:24.291Z,12.25
2023-01-10T00:57:53.142Z,10.25
2023-01-10T01:00:21.318Z,14.00
2023-01-10T01:02:52.136Z,11.00
2023-01-10T01:05:20.695Z,12.75
2023-01-10T01:07:51.386Z,10.50
2023-01-10T01:10:29.482Z,12.50
2023-01-10T01:13:10.275Z,11.25
2023-01-10T01:15:38.558Z,10.75
2023-01-10T01:18:08.412Z,10.75
2023-01-10T01:20:44.179Z,10.75
2023-01-10T01:23:15.453Z,13.25
2023-01-10T01:25:43.526Z,11.50
2023-01-10T01:28:13.251Z,14.75
2023-01-10T01:30:41.393Z,7.25
2023-01-10T01:33:10.376Z,14.00
2023-01-10T01:35:38.189Z,14.25
2023-01-10T01:38:10.909Z,14.50
2023-01-10T01:40:39.441Z,13.75
2023-01-10T01:43:29.866Z,15.00
2023-01-10T01:46:03.291Z,10.75
2023-01-10T01:48:44.313Z,12.25
2023-01-10T01:51:26.898Z,11.25
2023-01-10T01:54:02.050Z,14.50
2023-01-10T01:56:47.391Z,12.75
2023-01-10T01:59:36.715Z,15.25
2023-01-10T02:02:16.878Z,13.25
2023-01-10T02:05:05.862Z,13.25
2023-01-10T02:07:39.029Z,16.50
2023-01-10T02:10:20.263Z,12.75
2023-01-10T02:12:53.720Z,16.00
2023-01-10T02:15:22.508Z,17.75
2023-01-10T02:17:53.183Z,16.25
2023-01-10T02:20:23.565Z,9.00
2023-01-10T02:22:57.114Z,15.50
2023-01-10T02:25:55.710Z,14.75
2023-01-10T02:29:02.802Z,15.50
2023-01-10T02:32:04.850Z,14.25
2023-01-10T02:35:09.727Z,18.50
2023-01-10T02:37:56.868Z,20.75
2023-01-10T02:41:01.692Z,21.50
2023-01-10T02:43:46.952Z,17.25
2023-01-10T02:46:25.608Z,15.75
2023-01-10T02:48:58.258Z,18.75
2023-01-10T02:51:30.628Z,19.25
2023-01-10T02:54:10.153Z,17.25
2023-01-10T02:56:56.074Z,14.75
2023-01-10T02:59:45.666Z,14.25
2023-01-10T03:02:45.180Z,11.50
2023-01-10T03:06:02.366Z,13.00
2023-01-10T03:08:48.653Z,14.25
2023-01-10T03:11:37.724Z,10.25
2023-01-10T03:14:22.860Z,11.00
2023-01-10T03:16:58.153Z,13.75
2023-01-10T03:19:31.383Z,12.75
2023-01-10T03:22:05.520Z,9.00
2023-01-10T03:24:45.616Z,11.75
2023-01-10T03:27:23.163Z,10.25
2023-01-10T03:30:13.338Z,10.25
2023-01-10T03:32:43.207Z,11.50
2023-01-10T03:35:17.677Z,12.00
2023-01-10T03:37:50.941Z,11.00
2023-01-10T03:40:29.084Z,10.75
2023-01-10T03:46:55.377Z,10.25
2023-01-10T03:49:26.468Z,10.50
2023-01-10T03:51:55.133Z,10.25
2023-01-10T03:54:24.475Z,3.25
2023-01-10T03:56:53.168Z,13.00
2023-01-10T03:59:26.581Z,9.00
2023-01-10T04:01:56.597Z,9.50
2023-01-10T04:04:25.231Z,11.75
2023-01-10T04:06:54.039Z,13.00
2023-01-10T04:09:22.274Z,11.00
2023-01-10T04:11:51.663Z,12.25
2023-01-10T04:14:20.098Z,10.50
2023-01-10T04:16:48.979Z,13.00
2023-01-10T04:19:17.667Z,11.75
2023-01-10T04:21:46.078Z,14.25
2023-01-10T04:24:15.126Z,15.00
2023-01-10T04:26:45.167Z,14.50
2023-01-10T04:29:13.169Z,13.00
2023-01-10T04:31:45.188Z,14.00
2023-01-10T04:34:15.296Z,13.25
2023-01-10T04:36:44.093Z,14.50
2023-01-10T04:39:13.391Z,13.75
2023-01-10T04:41:41.746Z,16.50
2023-01-10T04:44:11.412Z,13.25
2023-01-10T04:46:40.129Z,12.00
2023-01-10T04:49:11.881Z,14.50
2023-01-10T04:51:40.205Z,11.50
2023-01-10T04:54:09.141Z,12.75
2023-01-10T04:56:37.139Z,9.50
2023-01-10T04:59:06.784Z,11.00
2023-01-10T05:01:39.312Z,12.75
2023-01-10T05:04:08.588Z,13.25
2023-01-10T05:06:40.501Z,14.25
2023-01-10T05:09:09.887Z,15.75
2023-01-10T05:11:38.063Z,14.00
2023-01-10T05:14:07.279Z,14.50
2023-01-10T05:16:38.170Z,13.25
2023-01-10T05:19:06.202Z,24.00
2023-01-10T05:21:35.224Z,13.75
2023-01-10T05:24:03.136Z,12.75
2023-01-10T05:26:31.925Z,14.00
2023-01-10T05:29:00.112Z,14.50
2023-01-10T05:31:29.513Z,33.75
2023-01-10T05:33:58.138Z,16.00
2023-01-10T05:36:27.488Z,13.50
2023-01-10T05:38:56.127Z,10.75
2023-01-10T05:41:24.230Z,14.25
2023-01-10T05:43:55.532Z,18.00
2023-01-10T05:46:24.060Z,15.00
2023-01-10T05:48:53.569Z,11.00
2023-01-10T05:51:23.133Z,15.75
2023-01-10T05:53:52.413Z,14.75
2023-01-10T05:56:21.722Z,13.00
2023-01-10T05:58:57.022Z,12.00
2023-01-10T06:01:36.012Z,13.00
2023-01-10T06:04:05.244Z,11.50
2023-01-10T06:06:40.546Z,14.00
2023-01-10T06:09:09.215Z,12.50
2023-01-10T06:11:41.414Z,15.75
2023-01-10T06:14:12.162Z,14.25
2023-01-10T06:16:44.529Z,13.00
2023-01-10T06:19:13.113Z,11.50
2023-01-10T06:21:42.326Z,12.50
2023-01-10T06:24:11.351Z,12.75
2023-01-10T06:26:41.808Z,14.50
2023-01-10T06:29:11.291Z,13.25
2023-01-10T06:31:40.401Z,11.25
2023-01-10T06:34:09.259Z,8.00
2023-01-10T06:36:38.760Z,8.00
2023-01-10T06:39:07.224Z,9.25
2023-01-10T06:41:36.868Z,9.00
2023-01-10T06:44:05.275Z,9.25
2023-01-10T06:46:34.462Z,7.00
2023-01-10T06:49:03.080Z,6.00
2023-01-10T06:51:32.015Z,5.67
2023-01-10T06:54:00.131Z,10.75
2023-01-10T06:56:32.584Z,5.67
2023-01-10T06:59:01.166Z,9.00
2023-01-10T07:01:30.266Z,9.00
2023-01-10T07:03:59.317Z,10.00
2023-01-10T07:06:29.572Z,5.00
2023-01-10T07:08:58.382Z,11.00
2023-01-10T07:11:26.155Z,0.00
2023-01-10T07:13:54.338Z,6.00
2023-01-10T07:16:27.793Z,9.33
2023-01-10T07:19:00.833Z,7.33
2023-01-10T07:21:30.147Z,8.00
2023-01-10T07:23:58.114Z,4.33
2023-01-10T07:26:29.822Z,8.00
2023-01-10T07:29:00.955Z,8.67
2023-01-10T07:31:29.216Z,6.33
2023-01-10T07:33:57.599Z,8.67
2023-01-10T07:36:25.363Z,7.67
2023-01-10T07:38:54.242Z,7.67
2023-01-10T07:41:22.072Z,8.00
2023-01-10T07:43:49.927Z,4.67
2023-01-10T07:46:17.946Z,10.00
2023-01-10T07:48:49.443Z,8.67
2023-01-10T07:51:17.535Z,6.33
2023-01-10T07:53:45.278Z,7.67
2023-01-10T07:56:12.868Z,4.67
2023-01-10T07:58:40.557Z,20.33
2023-01-10T08:01:11.313Z,7.33
2023-01-10T08:03:39.518Z,11.00
2023-01-10T08:06:15.306Z,7.67
2023-01-10T08:08:45.942Z,7.00
2023-01-10T08:11:15.598Z,7.00
2023-01-10T08:13:58.758Z,8.00
2023-01-10T08:16:31.642Z,4.67
2023-01-10T08:19:02.865Z,6.33
2023-01-10T08:21:44.598Z,9.00
2023-01-10T08:24:26.429Z,7.33
2023-01-10T08:27:01.281Z,7.67
2023-01-10T08:29:41.375Z,5.00
2023-01-10T08:32:12.942Z,7.33
2023-01-10T08:34:45.304Z,10.67
2023-01-10T08:37:16.811Z,5.00
2023-01-10T08:39:47.099Z,7.00
2023-01-10T08:42:28.686Z,4.67
2023-01-10T08:45:01.437Z,3.33
2023-01-10T08:47:41.883Z,4.67
2023-01-10T08:50:12.240Z,7.67
2023-01-10T08:52:51.145Z,6.33
2023-01-10T08:55:21.146Z,5.67
2023-01-10T08:57:53.520Z,8.67
2023-01-10T09:00:23.036Z,4.67
2023-01-10T09:03:02.191Z,7.00
2023-01-10T09:05:32.050Z,7.00
2023-01-10T09:08:05.948Z,9.00
2023-01-10T09:10:39.038Z,5.00
2023-01-10T09:13:10.456Z,6.67
2023-01-10T09:15:39.322Z,6.67
2023-01-10T09:18:10.277Z,9.00
2023-01-10T09:20:41.758Z,7.00
2023-01-10T09:23:20.216Z,7.33
2023-01-10T09:25:58.766Z,7.33
2023-01-10T09:28:28.327Z,11.00
2023-01-10T09:31:05.421Z,9.67
2023-01-10T09:33:47.817Z,5.33
2023-01-10T09:36:27.536Z,14.33
2023-01-10T09:38:58.143Z,7.00
2023-01-10T09:42:00.795Z,5.00
2023-01-10T09:45:07.796Z,5.67
2023-01-10T09:47:48.357Z,5.25
2023-01-10T09:50:25.054Z,4.00
2023-01-10T09:53:15.445Z,4.75
2023-01-10T09:55:46.495Z,11.25
2023-01-10T09:58:17.854Z,4.00
2023-01-10T10:01:28.950Z,5.00
2023-01-10T10:04:12.142Z,7.25
2023-01-10T10:06:41.697Z,5.00
2023-01-10T10:09:17.631Z,1.50
2023-01-10T10:11:54.320Z,4.00
2023-01-10T10:14:45.552Z,5.25
2023-01-10T10:17:28.998Z,2.00
2023-01-10T10:20:15.486Z,3.75
2023-01-10T10:23:04.962Z,3.00
2023-01-10T10:26:02.716Z,5.00
2023-01-10T10:28:57.304Z,2.50
2023-01-10T10:31:54.093Z,4.50
2023-01-10T10:34:37.036Z,4.00
2023-01-10T10:37:26.922Z,6.50
2023-01-10T10:40:17.113Z,4.50
2023-01-10T10:42:49.638Z,11.00
2023-01-10T10:45:18.389Z,4.00
2023-01-10T13:57:23.859Z,6.00
2023-01-10T14:04:05.356Z,1.00
2023-01-10T14:12:53.306Z,4.00
2023-01-10T14:15:30.743Z,2.00
2023-01-10T14:18:10.263Z,4.00
2023-01-10T14:20:44.036Z,4.33
2023-01-10T14:23:42.471Z,2.67
2023-01-10T14:33:06.677Z,3.33
2023-01-10T14:35:57.415Z,4.00
2023-01-10T14:38:39.338Z,2.00
2023-01-10T14:41:46.598Z,4.67
2023-01-10T14:45:00.236Z,4.00
2023-01-10T14:53:41.289Z,6.33
2023-01-10T14:56:26.739Z,4.33
2023-01-10T15:14:05.327Z,5.33
2023-01-10T15:19:56.805Z,3.33
2023-01-10T15:25:36.860Z,6.00
2023-01-10T15:28:24.564Z,2.00
2023-01-10T15:30:59.100Z,4.00
2023-01-10T15:34:15.550Z,4.00
2023-01-10T15:37:05.245Z,2.00
2023-01-10T15:42:53.875Z,4.00
2023-01-10T15:48:44.045Z,2.00
2023-01-10T15:51:44.899Z,5.00
2023-01-10T15:54:36.022Z,1.00
2023-01-10T15:57:40.145Z,2.00
2023-01-10T16:00:40.732Z,9.75
2023-01-10T16:03:38.699Z,4.25
2023-01-10T16:06:52.023Z,7.00
2023-01-10T16:09:36.584Z,9.00
2023-01-10T16:16:11.178Z,8.75
2023-01-10T16:18:50.876Z,6.50
2023-01-10T16:21:32.658Z,5.75
2023-01-10T16:24:04.716Z,6.25
2023-01-10T17:36:59.973Z,7.25
2023-01-10T17:39:42.694Z,8.75
2023-01-10T17:45:56.152Z,6.50
2023-01-10T17:48:40.091Z,8.00
2023-01-10T18:06:54.353Z,9.25
2023-01-10T18:09:46.875Z,8.00
2023-01-10T18:15:33.051Z,9.75
2023-01-10T18:18:20.505Z,11.00
2023-01-10T18:21:18.498Z,7.50
2023-01-10T18:24:06.153Z,4.00
2023-01-10T18:35:51.555Z,7.50
2023-01-10T18:41:41.612Z,3.00
2023-01-10T18:44:30.918Z,8.75
2023-01-10T19:01:55.239Z,10.75
2023-01-10T19:07:30.799Z,5.00
2023-01-10T19:12:46.475Z,8.75
2023-01-10T19:15:29.603Z,4.25
2023-01-10T19:24:08.150Z,6.25
2023-01-10T19:33:00.199Z,8.25
2023-01-10T22:48:49.333Z,11.25
2023-01-10T22:51:20.147Z,17.50
2023-01-10T22:53:56.469Z,16.25
2023-01-10T22:56:26.203Z,10.25
2023-01-10T22:58:55.855Z,10.75
2023-01-10T23:01:28.128Z,12.00
2023-01-10T23:03:57.182Z,12.50
2023-01-10T23:06:27.932Z,17.75
2023-01-10T23:09:00.270Z,14.50
2023-01-10T23:11:28.910Z,16.25
2023-01-10T23:13:58.149Z,9.00
2023-01-10T23:16:29.971Z,16.00
2023-01-10T23:18:59.602Z,17.25
2023-01-10T23:21:29.487Z,13.25
2023-01-10T23:24:00.604Z,13.00
2023-01-10T23:26:31.879Z,21.00
2023-01-10T23:29:01.759Z,18.50
2023-01-10T23:31:32.087Z,7.00
2023-01-10T23:34:00.864Z,25.75
2023-01-10T23:36:30.038Z,22.75
2023-01-10T23:38:57.848Z,13.00
2023-01-10T23:41:27.609Z,17.25
2023-01-10T23:43:59.189Z,14.50
2023-01-10T23:46:30.782Z,11.75
2023-01-10T23:49:05.401Z,15.25
2023-01-10T23:51:34.285Z,18.25
2023-01-10T23:54:02.702Z,0.00
2023-01-10T23:56:32.315Z,17.75
2023-01-10T23:59:01.016Z,16.75
